sensor_id;sensor_type;location;lat;lon;timestamp;P1;durP1;ratioP1;P2;durP2;ratioP2
75924;SDS011;64604;44.752;37.674;2022-11-20T00:00:43;18.35;;;8.60;;
75924;SDS011;64604;44.752;37.674;2022-11-20T00:01:45;18.67;;;9.15;;
75924;SDS011;64604;44.752;37.674;2022-11-20T00:02:47;19.77;;;9.27;;
75924;SDS011;64604;44.752;37.674;2022-11-20T00:03:48;19.65;;;8.43;;
75924;SDS011;64604;44.752;37.674;2022-11-20T00:04:51;16.65;;;8.35;;
75924;SDS011;64604;44.752;37.674;2022-11-20T00:05:53;22.17;;;8.82;;
75924;SDS011;64604;44.752;37.674;2022-11-20T00:06:54;24.73;;;8.52;;
75924;SDS011;64604;44.752;37.674;2022-11-20T00:07:56;16.50;;;7.82;;
75924;SDS011;64604;44.752;37.674;2022-11-20T00:08:58;18.63;;;9.02;;
75924;SDS011;64604;44.752;37.674;2022-11-20T00:10:01;17.90;;;8.82;;
75924;SDS011;64604;44.752;37.674;2022-11-20T00:11:12;24.20;;;9.23;;
75924;SDS011;64604;44.752;37.674;2022-11-20T00:12:16;20.35;;;8.80;;
75924;SDS011;64604;44.752;37.674;2022-11-20T00:13:17;20.98;;;9.30;;
75924;SDS011;64604;44.752;37.674;2022-11-20T00:14:19;21.98;;;8.80;;
75924;SDS011;64604;44.752;37.674;2022-11-20T00:15:20;15.05;;;8.30;;
75924;SDS011;64604;44.752;37.674;2022-11-20T00:16:23;18.13;;;8.52;;
75924;SDS011;64604;44.752;37.674;2022-11-20T00:17:26;18.95;;;8.70;;
75924;SDS011;64604;44.752;37.674;2022-11-20T00:18:27;18.33;;;8.55;;
75924;SDS011;64604;44.752;37.674;2022-11-20T00:19:29;20.92;;;9.07;;
75924;SDS011;64604;44.752;37.674;2022-11-20T00:20:31;17.73;;;8.85;;
75924;SDS011;64604;44.752;37.674;2022-11-20T00:21:32;20.10;;;9.40;;
75924;SDS011;64604;44.752;37.674;2022-11-20T00:22:34;19.52;;;8.10;;
75924;SDS011;64604;44.752;37.674;2022-11-20T00:23:36;19.65;;;8.52;;
75924;SDS011;64604;44.752;37.674;2022-11-20T00:24:37;19.20;;;8.45;;
75924;SDS011;64604;44.752;37.674;2022-11-20T00:25:39;19.70;;;9.38;;
75924;SDS011;64604;44.752;37.674;2022-11-20T00:26:40;20.42;;;8.70;;
75924;SDS011;64604;44.752;37.674;2022-11-20T00:27:43;23.02;;;8.52;;
75924;SDS011;64604;44.752;37.674;2022-11-20T00:28:48;18.90;;;8.07;;
75924;SDS011;64604;44.752;37.674;2022-11-20T00:29:52;19.15;;;8.55;;
75924;SDS011;64604;44.752;37.674;2022-11-20T00:30:59;18.20;;;8.32;;
75924;SDS011;64604;44.752;37.674;2022-11-20T00:32:02;19.13;;;8.20;;
75924;SDS011;64604;44.752;37.674;2022-11-20T00:33:03;15.55;;;8.00;;
75924;SDS011;64604;44.752;37.674;2022-11-20T00:34:05;18.95;;;8.80;;
75924;SDS011;64604;44.752;37.674;2022-11-20T00:35:07;20.73;;;8.48;;
75924;SDS011;64604;44.752;37.674;2022-11-20T00:36:09;16.17;;;7.75;;
75924;SDS011;64604;44.752;37.674;2022-11-20T00:37:13;21.15;;;9.40;;
75924;SDS011;64604;44.752;37.674;2022-11-20T00:38:14;18.92;;;8.77;;
75924;SDS011;64604;44.752;37.674;2022-11-20T00:39:16;20.60;;;9.18;;
75924;SDS011;64604;44.752;37.674;2022-11-20T00:40:18;16.42;;;8.88;;
75924;SDS011;64604;44.752;37.674;2022-11-20T00:41:19;18.95;;;8.80;;
75924;SDS011;64604;44.752;37.674;2022-11-20T00:42:21;18.02;;;9.10;;
75924;SDS011;64604;44.752;37.674;2022-11-20T00:43:23;18.05;;;8.75;;
75924;SDS011;64604;44.752;37.674;2022-11-20T00:44:25;20.95;;;9.30;;
75924;SDS011;64604;44.752;37.674;2022-11-20T00:45:27;19.35;;;8.35;;
75924;SDS011;64604;44.752;37.674;2022-11-20T00:46:28;21.65;;;9.20;;
75924;SDS011;64604;44.752;37.674;2022-11-20T00:47:30;18.50;;;8.32;;
75924;SDS011;64604;44.752;37.674;2022-11-20T00:48:32;21.08;;;8.77;;
75924;SDS011;64604;44.752;37.674;2022-11-20T00:49:34;18.08;;;8.73;;
75924;SDS011;64604;44.752;37.674;2022-11-20T00:50:35;21.33;;;8.73;;
75924;SDS011;64604;44.752;37.674;2022-11-20T00:51:37;18.88;;;8.52;;
75924;SDS011;64604;44.752;37.674;2022-11-20T00:52:38;23.17;;;9.25;;
75924;SDS011;64604;44.752;37.674;2022-11-20T00:53:40;18.02;;;9.32;;
75924;SDS011;64604;44.752;37.674;2022-11-20T00:54:42;20.10;;;8.70;;
75924;SDS011;64604;44.752;37.674;2022-11-20T00:55:51;18.40;;;8.18;;
75924;SDS011;64604;44.752;37.674;2022-11-20T00:56:54;18.73;;;8.27;;
75924;SDS011;64604;44.752;37.674;2022-11-20T00:57:56;20.27;;;8.65;;
75924;SDS011;64604;44.752;37.674;2022-11-20T00:58:59;18.00;;;8.77;;
75924;SDS011;64604;44.752;37.674;2022-11-20T01:00:02;18.58;;;9.38;;
75924;SDS011;64604;44.752;37.674;2022-11-20T01:01:07;21.50;;;9.55;;
75924;SDS011;64604;44.752;37.674;2022-11-20T01:02:11;23.15;;;10.68;;
75924;SDS011;64604;44.752;37.674;2022-11-20T01:03:13;22.35;;;9.57;;
75924;SDS011;64604;44.752;37.674;2022-11-20T01:04:14;24.75;;;9.68;;
75924;SDS011;64604;44.752;37.674;2022-11-20T01:05:16;23.48;;;9.10;;
75924;SDS011;64604;44.752;37.674;2022-11-20T01:06:36;18.50;;;8.57;;
75924;SDS011;64604;44.752;37.674;2022-11-20T01:07:38;15.35;;;8.20;;
75924;SDS011;64604;44.752;37.674;2022-11-20T01:08:40;19.67;;;8.98;;
75924;SDS011;64604;44.752;37.674;2022-11-20T01:09:42;17.35;;;7.95;;
75924;SDS011;64604;44.752;37.674;2022-11-20T01:10:43;21.83;;;8.80;;
75924;SDS011;64604;44.752;37.674;2022-11-20T01:11:45;17.10;;;9.02;;
75924;SDS011;64604;44.752;37.674;2022-11-20T01:12:46;19.05;;;9.00;;
75924;SDS011;64604;44.752;37.674;2022-11-20T01:14:12;15.63;;;8.18;;
75924;SDS011;64604;44.752;37.674;2022-11-20T01:15:15;15.82;;;7.13;;
75924;SDS011;64604;44.752;37.674;2022-11-20T01:17:20;14.30;;;7.55;;
75924;SDS011;64604;44.752;37.674;2022-11-20T01:18:21;14.93;;;7.00;;
75924;SDS011;64604;44.752;37.674;2022-11-20T01:19:23;15.35;;;7.60;;
75924;SDS011;64604;44.752;37.674;2022-11-20T01:20:25;15.95;;;7.90;;
75924;SDS011;64604;44.752;37.674;2022-11-20T01:21:31;15.95;;;7.68;;
75924;SDS011;64604;44.752;37.674;2022-11-20T01:22:34;18.38;;;7.47;;
75924;SDS011;64604;44.752;37.674;2022-11-20T01:23:37;15.98;;;7.70;;
75924;SDS011;64604;44.752;37.674;2022-11-20T01:24:40;16.90;;;7.20;;
75924;SDS011;64604;44.752;37.674;2022-11-20T01:25:42;16.58;;;7.40;;
75924;SDS011;64604;44.752;37.674;2022-11-20T01:26:45;14.13;;;7.95;;
75924;SDS011;64604;44.752;37.674;2022-11-20T01:27:48;17.10;;;8.00;;
75924;SDS011;64604;44.752;37.674;2022-11-20T01:28:50;20.25;;;8.02;;
75924;SDS011;64604;44.752;37.674;2022-11-20T01:29:52;14.98;;;7.40;;
75924;SDS011;64604;44.752;37.674;2022-11-20T01:30:53;14.23;;;8.15;;
75924;SDS011;64604;44.752;37.674;2022-11-20T01:31:55;17.08;;;7.85;;
75924;SDS011;64604;44.752;37.674;2022-11-20T01:32:56;15.05;;;7.72;;
75924;SDS011;64604;44.752;37.674;2022-11-20T01:34:00;18.60;;;8.05;;
75924;SDS011;64604;44.752;37.674;2022-11-20T01:35:03;13.00;;;7.70;;
75924;SDS011;64604;44.752;37.674;2022-11-20T01:36:05;13.48;;;7.70;;
75924;SDS011;64604;44.752;37.674;2022-11-20T01:37:08;14.63;;;7.68;;
75924;SDS011;64604;44.752;37.674;2022-11-20T01:38:09;18.33;;;9.02;;
75924;SDS011;64604;44.752;37.674;2022-11-20T01:39:15;18.23;;;8.85;;
75924;SDS011;64604;44.752;37.674;2022-11-20T01:40:21;14.38;;;8.82;;
75924;SDS011;64604;44.752;37.674;2022-11-20T01:41:23;18.35;;;9.43;;
75924;SDS011;64604;44.752;37.674;2022-11-20T01:42:47;23.58;;;11.10;;
75924;SDS011;64604;44.752;37.674;2022-11-20T01:44:19;25.15;;;10.55;;
75924;SDS011;64604;44.752;37.674;2022-11-20T01:47:02;19.42;;;10.57;;
75924;SDS011;64604;44.752;37.674;2022-11-20T01:48:07;20.30;;;9.98;;
75924;SDS011;64604;44.752;37.674;2022-11-20T01:51:00;19.42;;;10.00;;
75924;SDS011;64604;44.752;37.674;2022-11-20T01:52:05;18.88;;;9.02;;
75924;SDS011;64604;44.752;37.674;2022-11-20T01:53:13;19.92;;;8.30;;
75924;SDS011;64604;44.752;37.674;2022-11-20T01:54:18;21.77;;;9.18;;
75924;SDS011;64604;44.752;37.674;2022-11-20T01:55:25;16.98;;;8.63;;
75924;SDS011;64604;44.752;37.674;2022-11-20T01:56:31;18.15;;;8.82;;
75924;SDS011;64604;44.752;37.674;2022-11-20T01:57:36;17.83;;;7.57;;
75924;SDS011;64604;44.752;37.674;2022-11-20T01:58:42;15.45;;;8.63;;
75924;SDS011;64604;44.752;37.674;2022-11-20T01:59:50;14.88;;;8.25;;
75924;SDS011;64604;44.752;37.674;2022-11-20T02:00:58;17.88;;;8.82;;
75924;SDS011;64604;44.752;37.674;2022-11-20T02:02:00;18.50;;;8.43;;
75924;SDS011;64604;44.752;37.674;2022-11-20T02:03:11;19.98;;;8.95;;
75924;SDS011;64604;44.752;37.674;2022-11-20T02:04:16;18.05;;;8.63;;
75924;SDS011;64604;44.752;37.674;2022-11-20T02:06:42;16.75;;;7.97;;
75924;SDS011;64604;44.752;37.674;2022-11-20T02:07:47;15.98;;;7.97;;
75924;SDS011;64604;44.752;37.674;2022-11-20T02:08:50;13.02;;;8.23;;
75924;SDS011;64604;44.752;37.674;2022-11-20T02:09:53;20.02;;;8.40;;
75924;SDS011;64604;44.752;37.674;2022-11-20T02:10:55;16.23;;;8.07;;
75924;SDS011;64604;44.752;37.674;2022-11-20T02:11:56;15.65;;;7.85;;
75924;SDS011;64604;44.752;37.674;2022-11-20T02:13:00;16.95;;;8.45;;
75924;SDS011;64604;44.752;37.674;2022-11-20T02:14:20;15.37;;;8.77;;
75924;SDS011;64604;44.752;37.674;2022-11-20T02:15:23;17.23;;;8.52;;
75924;SDS011;64604;44.752;37.674;2022-11-20T02:16:25;14.75;;;8.23;;
75924;SDS011;64604;44.752;37.674;2022-11-20T02:17:31;17.75;;;8.35;;
75924;SDS011;64604;44.752;37.674;2022-11-20T02:18:32;17.20;;;8.77;;
75924;SDS011;64604;44.752;37.674;2022-11-20T02:19:34;20.95;;;7.78;;
75924;SDS011;64604;44.752;37.674;2022-11-20T02:20:36;13.68;;;7.75;;
75924;SDS011;64604;44.752;37.674;2022-11-20T02:24:16;15.60;;;8.43;;
75924;SDS011;64604;44.752;37.674;2022-11-20T02:25:20;16.95;;;8.00;;
75924;SDS011;64604;44.752;37.674;2022-11-20T02:26:22;20.00;;;8.13;;
75924;SDS011;64604;44.752;37.674;2022-11-20T02:27:25;15.10;;;7.45;;
75924;SDS011;64604;44.752;37.674;2022-11-20T02:28:27;16.83;;;8.48;;
75924;SDS011;64604;44.752;37.674;2022-11-20T02:30:52;16.27;;;8.13;;
75924;SDS011;64604;44.752;37.674;2022-11-20T02:31:54;14.90;;;8.10;;
75924;SDS011;64604;44.752;37.674;2022-11-20T02:32:57;19.13;;;8.38;;
75924;SDS011;64604;44.752;37.674;2022-11-20T02:33:59;13.60;;;7.35;;
75924;SDS011;64604;44.752;37.674;2022-11-20T02:35:07;19.23;;;8.68;;
75924;SDS011;64604;44.752;37.674;2022-11-20T02:36:21;15.70;;;7.97;;
75924;SDS011;64604;44.752;37.674;2022-11-20T02:37:26;15.98;;;8.02;;
75924;SDS011;64604;44.752;37.674;2022-11-20T02:38:34;16.77;;;7.95;;
75924;SDS011;64604;44.752;37.674;2022-11-20T02:39:35;17.08;;;8.65;;
75924;SDS011;64604;44.752;37.674;2022-11-20T02:40:37;16.88;;;8.63;;
75924;SDS011;64604;44.752;37.674;2022-11-20T02:41:38;16.27;;;9.00;;
75924;SDS011;64604;44.752;37.674;2022-11-20T02:42:40;17.58;;;9.48;;
75924;SDS011;64604;44.752;37.674;2022-11-20T02:43:42;19.77;;;9.10;;
75924;SDS011;64604;44.752;37.674;2022-11-20T02:44:44;18.88;;;9.32;;
75924;SDS011;64604;44.752;37.674;2022-11-20T02:45:46;15.55;;;8.90;;
75924;SDS011;64604;44.752;37.674;2022-11-20T02:46:48;18.40;;;8.82;;
75924;SDS011;64604;44.752;37.674;2022-11-20T02:47:49;23.20;;;9.38;;
75924;SDS011;64604;44.752;37.674;2022-11-20T02:48:51;16.73;;;9.15;;
75924;SDS011;64604;44.752;37.674;2022-11-20T02:49:53;17.35;;;8.93;;
75924;SDS011;64604;44.752;37.674;2022-11-20T02:50:54;18.42;;;9.38;;
75924;SDS011;64604;44.752;37.674;2022-11-20T02:51:56;17.40;;;9.25;;
75924;SDS011;64604;44.752;37.674;2022-11-20T02:52:57;17.48;;;8.73;;
75924;SDS011;64604;44.752;37.674;2022-11-20T02:53:59;16.30;;;9.95;;
75924;SDS011;64604;44.752;37.674;2022-11-20T02:55:01;19.38;;;9.75;;
75924;SDS011;64604;44.752;37.674;2022-11-20T02:56:04;21.20;;;8.93;;
75924;SDS011;64604;44.752;37.674;2022-11-20T02:57:06;18.33;;;9.20;;
75924;SDS011;64604;44.752;37.674;2022-11-20T02:58:08;17.88;;;9.63;;
75924;SDS011;64604;44.752;37.674;2022-11-20T02:59:10;15.23;;;9.52;;
75924;SDS011;64604;44.752;37.674;2022-11-20T03:00:11;17.83;;;9.45;;
75924;SDS011;64604;44.752;37.674;2022-11-20T03:01:13;15.90;;;9.15;;
75924;SDS011;64604;44.752;37.674;2022-11-20T03:02:15;19.25;;;9.63;;
75924;SDS011;64604;44.752;37.674;2022-11-20T03:03:16;17.10;;;9.13;;
75924;SDS011;64604;44.752;37.674;2022-11-20T03:04:18;18.48;;;10.00;;
75924;SDS011;64604;44.752;37.674;2022-11-20T03:05:19;14.82;;;9.02;;
75924;SDS011;64604;44.752;37.674;2022-11-20T03:06:21;13.50;;;8.90;;
75924;SDS011;64604;44.752;37.674;2022-11-20T03:07:23;20.73;;;9.23;;
75924;SDS011;64604;44.752;37.674;2022-11-20T03:08:25;18.23;;;9.25;;
75924;SDS011;64604;44.752;37.674;2022-11-20T03:09:27;17.30;;;9.38;;
75924;SDS011;64604;44.752;37.674;2022-11-20T03:10:28;15.05;;;9.88;;
75924;SDS011;64604;44.752;37.674;2022-11-20T03:11:30;15.70;;;8.70;;
75924;SDS011;64604;44.752;37.674;2022-11-20T03:12:31;21.10;;;8.80;;
75924;SDS011;64604;44.752;37.674;2022-11-20T03:13:33;17.77;;;8.55;;
75924;SDS011;64604;44.752;37.674;2022-11-20T03:14:35;14.20;;;8.00;;
75924;SDS011;64604;44.752;37.674;2022-11-20T03:15:36;16.67;;;8.75;;
75924;SDS011;64604;44.752;37.674;2022-11-20T03:16:38;14.98;;;8.32;;
75924;SDS011;64604;44.752;37.674;2022-11-20T03:17:40;15.45;;;8.55;;
75924;SDS011;64604;44.752;37.674;2022-11-20T03:18:42;16.88;;;8.55;;
75924;SDS011;64604;44.752;37.674;2022-11-20T03:19:43;16.15;;;9.20;;
75924;SDS011;64604;44.752;37.674;2022-11-20T03:20:45;15.30;;;8.70;;
75924;SDS011;64604;44.752;37.674;2022-11-20T03:21:47;15.38;;;8.13;;
75924;SDS011;64604;44.752;37.674;2022-11-20T03:22:48;15.13;;;7.72;;
75924;SDS011;64604;44.752;37.674;2022-11-20T03:23:50;18.20;;;8.90;;
75924;SDS011;64604;44.752;37.674;2022-11-20T03:24:51;18.60;;;8.95;;
75924;SDS011;64604;44.752;37.674;2022-11-20T03:25:53;16.67;;;8.43;;
75924;SDS011;64604;44.752;37.674;2022-11-20T03:26:55;13.93;;;7.80;;
75924;SDS011;64604;44.752;37.674;2022-11-20T03:27:56;16.42;;;8.82;;
75924;SDS011;64604;44.752;37.674;2022-11-20T03:28:58;13.55;;;8.38;;
75924;SDS011;64604;44.752;37.674;2022-11-20T03:30:01;15.55;;;8.77;;
75924;SDS011;64604;44.752;37.674;2022-11-20T03:31:07;18.45;;;8.77;;
75924;SDS011;64604;44.752;37.674;2022-11-20T03:32:13;16.25;;;9.23;;
75924;SDS011;64604;44.752;37.674;2022-11-20T03:33:15;13.80;;;9.18;;
75924;SDS011;64604;44.752;37.674;2022-11-20T03:34:16;20.85;;;9.18;;
75924;SDS011;64604;44.752;37.674;2022-11-20T03:35:18;16.92;;;9.10;;
75924;SDS011;64604;44.752;37.674;2022-11-20T03:36:20;16.05;;;8.93;;
75924;SDS011;64604;44.752;37.674;2022-11-20T03:37:22;17.48;;;9.27;;
75924;SDS011;64604;44.752;37.674;2022-11-20T03:38:24;18.30;;;10.55;;
75924;SDS011;64604;44.752;37.674;2022-11-20T03:39:25;14.65;;;10.07;;
75924;SDS011;64604;44.752;37.674;2022-11-20T03:40:27;17.05;;;9.75;;
75924;SDS011;64604;44.752;37.674;2022-11-20T03:41:29;14.98;;;9.63;;
75924;SDS011;64604;44.752;37.674;2022-11-20T03:42:32;24.10;;;10.63;;
75924;SDS011;64604;44.752;37.674;2022-11-20T03:43:47;19.42;;;10.82;;
75924;SDS011;64604;44.752;37.674;2022-11-20T03:44:59;17.98;;;9.20;;
75924;SDS011;64604;44.752;37.674;2022-11-20T03:46:01;18.05;;;10.77;;
75924;SDS011;64604;44.752;37.674;2022-11-20T03:47:03;17.05;;;10.77;;
75924;SDS011;64604;44.752;37.674;2022-11-20T03:48:05;22.92;;;11.80;;
75924;SDS011;64604;44.752;37.674;2022-11-20T03:49:06;23.73;;;10.60;;
75924;SDS011;64604;44.752;37.674;2022-11-20T03:50:08;19.67;;;10.57;;
75924;SDS011;64604;44.752;37.674;2022-11-20T03:51:14;20.25;;;11.25;;
75924;SDS011;64604;44.752;37.674;2022-11-20T03:52:17;22.70;;;10.98;;
75924;SDS011;64604;44.752;37.674;2022-11-20T03:53:19;19.67;;;11.82;;
75924;SDS011;64604;44.752;37.674;2022-11-20T03:54:21;22.10;;;11.95;;
75924;SDS011;64604;44.752;37.674;2022-11-20T03:55:23;21.80;;;11.32;;
75924;SDS011;64604;44.752;37.674;2022-11-20T03:56:29;19.38;;;11.15;;
75924;SDS011;64604;44.752;37.674;2022-11-20T03:57:31;21.27;;;11.65;;
75924;SDS011;64604;44.752;37.674;2022-11-20T03:58:33;22.20;;;11.88;;
75924;SDS011;64604;44.752;37.674;2022-11-20T03:59:45;19.65;;;11.48;;
75924;SDS011;64604;44.752;37.674;2022-11-20T04:00:46;22.08;;;11.63;;
75924;SDS011;64604;44.752;37.674;2022-11-20T04:01:48;20.40;;;11.98;;
75924;SDS011;64604;44.752;37.674;2022-11-20T04:02:49;17.95;;;11.68;;
75924;SDS011;64604;44.752;37.674;2022-11-20T04:03:51;20.17;;;12.02;;
75924;SDS011;64604;44.752;37.674;2022-11-20T04:04:54;20.70;;;11.77;;
75924;SDS011;64604;44.752;37.674;2022-11-20T04:06:00;21.30;;;11.73;;
75924;SDS011;64604;44.752;37.674;2022-11-20T04:07:03;16.38;;;10.38;;
75924;SDS011;64604;44.752;37.674;2022-11-20T04:08:05;16.08;;;9.07;;
75924;SDS011;64604;44.752;37.674;2022-11-20T04:09:06;12.20;;;8.95;;
75924;SDS011;64604;44.752;37.674;2022-11-20T04:10:08;17.80;;;9.73;;
75924;SDS011;64604;44.752;37.674;2022-11-20T04:11:14;19.40;;;9.93;;
75924;SDS011;64604;44.752;37.674;2022-11-20T04:12:19;16.48;;;9.27;;
75924;SDS011;64604;44.752;37.674;2022-11-20T04:13:21;18.52;;;9.32;;
75924;SDS011;64604;44.752;37.674;2022-11-20T04:14:23;14.43;;;9.60;;
75924;SDS011;64604;44.752;37.674;2022-11-20T04:15:24;14.75;;;10.20;;
75924;SDS011;64604;44.752;37.674;2022-11-20T04:16:26;19.27;;;10.90;;
75924;SDS011;64604;44.752;37.674;2022-11-20T04:17:30;16.63;;;9.77;;
75924;SDS011;64604;44.752;37.674;2022-11-20T04:18:32;15.52;;;9.70;;
75924;SDS011;64604;44.752;37.674;2022-11-20T04:19:34;14.55;;;9.55;;
75924;SDS011;64604;44.752;37.674;2022-11-20T04:20:35;15.60;;;9.75;;
75924;SDS011;64604;44.752;37.674;2022-11-20T04:21:37;16.95;;;10.35;;
75924;SDS011;64604;44.752;37.674;2022-11-20T04:22:39;14.98;;;10.52;;
75924;SDS011;64604;44.752;37.674;2022-11-20T04:23:40;16.77;;;9.45;;
75924;SDS011;64604;44.752;37.674;2022-11-20T04:24:42;15.02;;;9.40;;
75924;SDS011;64604;44.752;37.674;2022-11-20T04:25:43;15.98;;;9.65;;
75924;SDS011;64604;44.752;37.674;2022-11-20T04:26:45;16.17;;;10.10;;
75924;SDS011;64604;44.752;37.674;2022-11-20T04:27:47;20.13;;;10.20;;
75924;SDS011;64604;44.752;37.674;2022-11-20T04:28:48;16.73;;;10.07;;
75924;SDS011;64604;44.752;37.674;2022-11-20T04:29:50;14.88;;;9.30;;
75924;SDS011;64604;44.752;37.674;2022-11-20T04:30:51;14.20;;;9.68;;
75924;SDS011;64604;44.752;37.674;2022-11-20T04:31:53;18.63;;;10.65;;
75924;SDS011;64604;44.752;37.674;2022-11-20T04:32:54;15.52;;;9.98;;
75924;SDS011;64604;44.752;37.674;2022-11-20T04:34:03;21.52;;;10.55;;
75924;SDS011;64604;44.752;37.674;2022-11-20T04:35:06;15.23;;;10.30;;
75924;SDS011;64604;44.752;37.674;2022-11-20T04:37:27;17.02;;;10.00;;
75924;SDS011;64604;44.752;37.674;2022-11-20T04:38:28;20.55;;;10.68;;
75924;SDS011;64604;44.752;37.674;2022-11-20T04:39:30;16.75;;;10.13;;
75924;SDS011;64604;44.752;37.674;2022-11-20T04:40:31;18.40;;;10.73;;
75924;SDS011;64604;44.752;37.674;2022-11-20T04:41:34;18.13;;;11.07;;
75924;SDS011;64604;44.752;37.674;2022-11-20T04:42:36;16.50;;;9.88;;
75924;SDS011;64604;44.752;37.674;2022-11-20T04:43:38;18.50;;;11.00;;
75924;SDS011;64604;44.752;37.674;2022-11-20T04:44:39;17.58;;;11.30;;
75924;SDS011;64604;44.752;37.674;2022-11-20T04:45:41;23.95;;;11.48;;
75924;SDS011;64604;44.752;37.674;2022-11-20T04:46:43;17.65;;;11.15;;
75924;SDS011;64604;44.752;37.674;2022-11-20T04:47:44;21.27;;;11.32;;
75924;SDS011;64604;44.752;37.674;2022-11-20T04:48:46;15.98;;;11.35;;
75924;SDS011;64604;44.752;37.674;2022-11-20T04:49:48;21.38;;;11.13;;
75924;SDS011;64604;44.752;37.674;2022-11-20T04:50:50;16.92;;;10.93;;
75924;SDS011;64604;44.752;37.674;2022-11-20T04:51:55;20.30;;;11.40;;
75924;SDS011;64604;44.752;37.674;2022-11-20T04:52:56;20.27;;;12.02;;
75924;SDS011;64604;44.752;37.674;2022-11-20T04:53:58;20.15;;;11.40;;
75924;SDS011;64604;44.752;37.674;2022-11-20T04:54:59;18.05;;;11.85;;
75924;SDS011;64604;44.752;37.674;2022-11-20T04:56:08;20.13;;;11.07;;
75924;SDS011;64604;44.752;37.674;2022-11-20T04:57:12;16.75;;;10.45;;
75924;SDS011;64604;44.752;37.674;2022-11-20T04:58:14;17.77;;;11.35;;
75924;SDS011;64604;44.752;37.674;2022-11-20T04:59:16;16.95;;;10.55;;
75924;SDS011;64604;44.752;37.674;2022-11-20T05:00:18;18.08;;;11.23;;
75924;SDS011;64604;44.752;37.674;2022-11-20T05:01:21;19.00;;;11.35;;
75924;SDS011;64604;44.752;37.674;2022-11-20T05:02:24;18.42;;;10.80;;
75924;SDS011;64604;44.752;37.674;2022-11-20T05:03:25;20.13;;;11.57;;
75924;SDS011;64604;44.752;37.674;2022-11-20T05:04:27;17.35;;;10.05;;
75924;SDS011;64604;44.752;37.674;2022-11-20T05:05:28;16.92;;;10.68;;
75924;SDS011;64604;44.752;37.674;2022-11-20T05:06:30;18.05;;;10.88;;
75924;SDS011;64604;44.752;37.674;2022-11-20T05:07:32;19.30;;;10.32;;
75924;SDS011;64604;44.752;37.674;2022-11-20T05:08:34;14.80;;;10.02;;
75924;SDS011;64604;44.752;37.674;2022-11-20T05:09:35;20.30;;;11.20;;
75924;SDS011;64604;44.752;37.674;2022-11-20T05:10:37;17.33;;;10.35;;
75924;SDS011;64604;44.752;37.674;2022-11-20T05:11:38;19.38;;;10.18;;
75924;SDS011;64604;44.752;37.674;2022-11-20T05:12:40;17.17;;;11.13;;
75924;SDS011;64604;44.752;37.674;2022-11-20T05:13:42;18.70;;;10.45;;
75924;SDS011;64604;44.752;37.674;2022-11-20T05:14:43;17.08;;;10.30;;
75924;SDS011;64604;44.752;37.674;2022-11-20T05:15:45;17.90;;;10.95;;
75924;SDS011;64604;44.752;37.674;2022-11-20T05:16:46;17.50;;;10.23;;
75924;SDS011;64604;44.752;37.674;2022-11-20T05:17:48;14.93;;;10.15;;
75924;SDS011;64604;44.752;37.674;2022-11-20T05:18:53;17.27;;;10.70;;
75924;SDS011;64604;44.752;37.674;2022-11-20T05:19:56;14.88;;;9.80;;
75924;SDS011;64604;44.752;37.674;2022-11-20T05:20:58;17.38;;;10.15;;
75924;SDS011;64604;44.752;37.674;2022-11-20T05:22:00;18.52;;;10.57;;
75924;SDS011;64604;44.752;37.674;2022-11-20T05:23:01;20.15;;;10.93;;
75924;SDS011;64604;44.752;37.674;2022-11-20T05:24:03;17.25;;;10.35;;
75924;SDS011;64604;44.752;37.674;2022-11-20T05:25:05;14.52;;;9.43;;
75924;SDS011;64604;44.752;37.674;2022-11-20T05:26:08;15.23;;;9.73;;
75924;SDS011;64604;44.752;37.674;2022-11-20T05:27:14;15.68;;;9.93;;
75924;SDS011;64604;44.752;37.674;2022-11-20T05:28:16;17.10;;;9.75;;
75924;SDS011;64604;44.752;37.674;2022-11-20T05:29:18;15.27;;;9.88;;
75924;SDS011;64604;44.752;37.674;2022-11-20T05:30:19;14.52;;;9.25;;
75924;SDS011;64604;44.752;37.674;2022-11-20T05:31:22;15.38;;;9.32;;
75924;SDS011;64604;44.752;37.674;2022-11-20T05:32:24;16.10;;;10.00;;
75924;SDS011;64604;44.752;37.674;2022-11-20T05:33:26;16.73;;;9.68;;
75924;SDS011;64604;44.752;37.674;2022-11-20T05:34:27;13.60;;;9.35;;
75924;SDS011;64604;44.752;37.674;2022-11-20T05:35:29;16.77;;;9.75;;
75924;SDS011;64604;44.752;37.674;2022-11-20T05:36:31;13.23;;;9.23;;
75924;SDS011;64604;44.752;37.674;2022-11-20T05:37:33;12.10;;;8.70;;
75924;SDS011;64604;44.752;37.674;2022-11-20T05:38:34;11.95;;;8.75;;
75924;SDS011;64604;44.752;37.674;2022-11-20T05:39:36;14.35;;;8.68;;
75924;SDS011;64604;44.752;37.674;2022-11-20T05:40:37;14.57;;;9.10;;
75924;SDS011;64604;44.752;37.674;2022-11-20T05:41:39;17.13;;;9.57;;
75924;SDS011;64604;44.752;37.674;2022-11-20T05:42:40;14.98;;;9.30;;
75924;SDS011;64604;44.752;37.674;2022-11-20T05:43:45;15.88;;;9.18;;
75924;SDS011;64604;44.752;37.674;2022-11-20T05:44:48;13.45;;;9.48;;
75924;SDS011;64604;44.752;37.674;2022-11-20T05:45:53;12.80;;;8.80;;
75924;SDS011;64604;44.752;37.674;2022-11-20T05:46:55;14.43;;;8.77;;
75924;SDS011;64604;44.752;37.674;2022-11-20T05:47:59;14.50;;;9.77;;
75924;SDS011;64604;44.752;37.674;2022-11-20T05:49:01;12.50;;;9.00;;
75924;SDS011;64604;44.752;37.674;2022-11-20T05:50:02;14.35;;;8.98;;
75924;SDS011;64604;44.752;37.674;2022-11-20T05:51:05;17.90;;;8.90;;
75924;SDS011;64604;44.752;37.674;2022-11-20T05:52:08;15.10;;;9.48;;
75924;SDS011;64604;44.752;37.674;2022-11-20T05:53:10;14.98;;;9.98;;
75924;SDS011;64604;44.752;37.674;2022-11-20T05:54:12;15.27;;;9.45;;
75924;SDS011;64604;44.752;37.674;2022-11-20T05:55:14;16.55;;;10.63;;
75924;SDS011;64604;44.752;37.674;2022-11-20T05:56:16;12.85;;;9.13;;
75924;SDS011;64604;44.752;37.674;2022-11-20T05:57:19;18.08;;;10.07;;
75924;SDS011;64604;44.752;37.674;2022-11-20T05:58:21;13.95;;;9.35;;
75924;SDS011;64604;44.752;37.674;2022-11-20T05:59:23;15.82;;;10.43;;
75924;SDS011;64604;44.752;37.674;2022-11-20T06:00:24;16.02;;;10.02;;
75924;SDS011;64604;44.752;37.674;2022-11-20T06:01:26;14.17;;;9.63;;
75924;SDS011;64604;44.752;37.674;2022-11-20T06:02:27;13.38;;;9.27;;
75924;SDS011;64604;44.752;37.674;2022-11-20T06:03:29;13.82;;;8.30;;
75924;SDS011;64604;44.752;37.674;2022-11-20T06:04:30;14.07;;;8.63;;
75924;SDS011;64604;44.752;37.674;2022-11-20T06:05:33;15.02;;;8.88;;
75924;SDS011;64604;44.752;37.674;2022-11-20T06:06:34;14.85;;;9.35;;
75924;SDS011;64604;44.752;37.674;2022-11-20T06:07:36;15.38;;;10.00;;
75924;SDS011;64604;44.752;37.674;2022-11-20T06:08:38;17.05;;;10.38;;
75924;SDS011;64604;44.752;37.674;2022-11-20T06:09:39;16.20;;;10.55;;
75924;SDS011;64604;44.752;37.674;2022-11-20T06:10:41;16.63;;;10.63;;
75924;SDS011;64604;44.752;37.674;2022-11-20T06:11:42;15.90;;;9.38;;
75924;SDS011;64604;44.752;37.674;2022-11-20T06:12:44;14.73;;;8.73;;
75924;SDS011;64604;44.752;37.674;2022-11-20T06:13:46;13.93;;;9.75;;
75924;SDS011;64604;44.752;37.674;2022-11-20T06:14:48;14.18;;;9.55;;
75924;SDS011;64604;44.752;37.674;2022-11-20T06:15:50;14.65;;;9.30;;
75924;SDS011;64604;44.752;37.674;2022-11-20T06:16:52;14.50;;;8.95;;
75924;SDS011;64604;44.752;37.674;2022-11-20T06:17:54;12.88;;;7.93;;